Flight Track Log - Related Links

Times and Time Zones

All times are in EDT time to prevent confusion due to time zone crossing. See the N1526M flight status page for this flight to view local times or setup timezone preferences in your user account.

Time Position Orientation Groundspeed Altitude Reporting Facility
EDT Latitude Longitude Course Direction KTS MPH feet Rate Location/Type
Fri 11:14:50 AM 44.7833 -93.4667 46° Northeast 119 137 3,300  Level Minneapolis TRACON
Fri 11:15:45 AM 44.8000 -93.4333 55° Northeast 175 201 4,000 470 Climbing Minneapolis TRACON
Fri 11:16:45 AM 44.8333 -93.3833 47° Northeast 198 228 4,200 395 Climbing Minneapolis TRACON
Fri 11:18:17 AM 44.8908 -93.3214 37° Northeast 179 206 5,000 312 Climbing Minneapolis Center
Fri 11:19:19 AM 44.9400 -93.2483 46° Northeast 213 245 5,000  Level Minneapolis Center
Fri 11:20:00 AM 45.0564 -93.1252 46° Northeast  Level FlightAware Approximate
Fri 11:20:21 AM 44.9853 -93.1881 43° Northeast 221 254 5,000  Level Minneapolis Center
Fri 11:21:23 AM 45.0300 -93.1303 42° Northeast 219 252 4,900 -48 Descending Minneapolis Center
Fri 11:22:25 AM 45.0736 -93.0697 44° Northeast 219 252 4,900 48 Level Minneapolis Center
Fri 11:23:27 AM 45.1181 -93.0108 43° Northeast 218 251 5,000 97 Climbing Minneapolis Center
Fri 11:24:29 AM 45.1597 -92.9500 46° Northeast 216 249 5,100 629 Climbing Minneapolis Center
Fri 11:25:31 AM 45.1969 -92.8997 44° Northeast 185 213 6,300 919 Climbing Minneapolis Center
Fri 11:26:33 AM 45.2367 -92.8386 47° Northeast 177 204 7,000 339 Climbing Minneapolis Center
Fri 11:27:35 AM 45.2756 -92.7797 47° Northeast 205 236 7,000  Level Minneapolis Center
Fri 11:28:37 AM 45.3197 -92.7206 43° Northeast 216 249 7,000 -48 Level Minneapolis Center
Fri 11:29:39 AM 45.3617 -92.6583 46° Northeast 217 250 6,900  Descending Minneapolis Center
Fri 11:30:41 AM 45.4061 -92.5983 43° Northeast 219 252 7,000  Climbing Minneapolis Center
Fri 11:31:43 AM 45.4497 -92.5369 45° Northeast 221 254 6,900 -48 Descending Minneapolis Center
Fri 11:32:45 AM 45.5008 -92.4628 45° Northeast 220 253 6,900  Level Minneapolis Center
Fri 11:33:47 AM 45.5433 -92.4006 46° Northeast 220 253 6,900 97 Level Minneapolis Center
Fri 11:34:49 AM 45.5875 -92.3383 45° Northeast 223 257 7,100 48 Climbing Minneapolis Center
Fri 11:35:51 AM 45.6289 -92.2744 47° Northeast 220 253 7,000  Descending Minneapolis Center
Fri 11:36:53 AM 45.6689 -92.2128 47° Northeast 216 249 7,100 48 Climbing Minneapolis Center
Fri 11:37:55 AM 45.7131 -92.1539 43° Northeast 216 249 7,100  Level Minneapolis Center
Fri 11:38:57 AM 45.7642 -92.0783 46° Northeast 219 252 7,100 -97 Level Minneapolis Center
Fri 11:39:59 AM 45.8097 -92.0169 43° Northeast 223 257 6,900 -97 Descending Minneapolis Center
Fri 11:41:01 AM 45.8531 -91.9514 46° Northeast 225 259 6,900  Level Minneapolis Center
Fri 11:42:03 AM 45.8942 -91.8872 47° Northeast 223 257 6,900  Level Minneapolis Center
Fri 11:43:05 AM 45.9358 -91.8244 46° Northeast 220 253 6,900  Level Minneapolis Center
Fri 11:44:07 AM 45.9778 -91.7611 46° Northeast 219 252 6,900  Level Minneapolis Center
Fri 11:45:09 AM 46.0286 -91.6858 46° Northeast 219 252 6,900  Level Minneapolis Center
Fri 11:46:11 AM 46.0658 -91.6314 45° Northeast 220 253 6,900  Level Minneapolis Center
Fri 11:47:13 AM 46.1189 -91.5597 43° Northeast 219 252 6,900  Level Minneapolis Center
Fri 11:48:15 AM 46.1639 -91.4978 44° Northeast 220 253 6,900  Level Minneapolis Center
Fri 11:49:17 AM 46.2011 -91.4361 49° Northeast 219 252 6,900  Level Minneapolis Center
Fri 11:51:00 AM 46.2649 -91.3361 47° Northeast  Level FlightAware Approximate
Fri 11:58:00 AM 46.5238 -90.9262 35° Northeast  Level FlightAware Approximate
Fri 11:59:00 AM 46.5333 -90.9167 35° Northeast  Level FlightAware Approximate
Fri 12:00:00 PM 46.5485 -90.9190 35° Northeast  Level Estimated
Fri 12:01:00 PM 46.5485 -90.9190 35° Northeast  Level Estimated
Fri 12:02:00 PM 46.5485 -90.9190 35° Northeast  Level Estimated
Fri 12:03:00 PM 46.5485 -90.9190 35° Northeast  Level Estimated
Fri 12:04:00 PM 46.5485 -90.9190 35° Northeast  Level Estimated
Fri 12:05:00 PM 46.5485 -90.9190 35° Northeast  Level Estimated

Login

Don't have an account? Register now (free) for customized features, flight alerts, and more!